sensor_id;sensor_type;location;lat;lon;timestamp;P1;durP1;ratioP1;P2;durP2;ratioP2
35990;SDS011;22064;42.672;23.282;2023-01-15T00:01:28;35.08;;;16.25;;
35990;SDS011;22064;42.672;23.282;2023-01-15T00:04:14;36.38;;;15.77;;
35990;SDS011;22064;42.672;23.282;2023-01-15T00:06:59;32.67;;;14.43;;
35990;SDS011;22064;42.672;23.282;2023-01-15T00:09:43;32.78;;;13.82;;
35990;SDS011;22064;42.672;23.282;2023-01-15T00:12:26;31.70;;;14.00;;
35990;SDS011;22064;42.672;23.282;2023-01-15T00:15:11;37.47;;;15.35;;
35990;SDS011;22064;42.672;23.282;2023-01-15T00:17:56;35.17;;;15.07;;
35990;SDS011;22064;42.672;23.282;2023-01-15T00:20:39;32.65;;;14.70;;
35990;SDS011;22064;42.672;23.282;2023-01-15T00:23:24;35.33;;;15.27;;
35990;SDS011;22064;42.672;23.282;2023-01-15T00:26:27;34.30;;;16.48;;
35990;SDS011;22064;42.672;23.282;2023-01-15T00:29:32;34.97;;;15.07;;
35990;SDS011;22064;42.672;23.282;2023-01-15T00:32:17;31.15;;;13.43;;
35990;SDS011;22064;42.672;23.282;2023-01-15T00:35:02;34.30;;;14.80;;
35990;SDS011;22064;42.672;23.282;2023-01-15T00:37:46;33.55;;;14.68;;
35990;SDS011;22064;42.672;23.282;2023-01-15T00:40:31;36.20;;;15.82;;
35990;SDS011;22064;42.672;23.282;2023-01-15T00:43:15;33.17;;;14.93;;
35990;SDS011;22064;42.672;23.282;2023-01-15T00:46:01;35.72;;;14.55;;
35990;SDS011;22064;42.672;23.282;2023-01-15T00:48:47;34.00;;;15.35;;
35990;SDS011;22064;42.672;23.282;2023-01-15T00:51:32;35.90;;;15.60;;
35990;SDS011;22064;42.672;23.282;2023-01-15T00:54:17;34.83;;;14.88;;
35990;SDS011;22064;42.672;23.282;2023-01-15T00:57:01;36.75;;;15.55;;
35990;SDS011;22064;42.672;23.282;2023-01-15T00:59:45;33.25;;;14.13;;
35990;SDS011;22064;42.672;23.282;2023-01-15T01:02:29;30.38;;;13.25;;
35990;SDS011;22064;42.672;23.282;2023-01-15T01:05:13;33.35;;;13.55;;
35990;SDS011;22064;42.672;23.282;2023-01-15T01:07:57;34.55;;;14.45;;
35990;SDS011;22064;42.672;23.282;2023-01-15T01:10:42;34.65;;;14.35;;
35990;SDS011;22064;42.672;23.282;2023-01-15T01:13:27;34.22;;;14.85;;
35990;SDS011;22064;42.672;23.282;2023-01-15T01:19:17;32.20;;;14.20;;
35990;SDS011;22064;42.672;23.282;2023-01-15T01:22:03;35.88;;;15.27;;
35990;SDS011;22064;42.672;23.282;2023-01-15T01:24:47;33.45;;;15.93;;
35990;SDS011;22064;42.672;23.282;2023-01-15T01:27:30;33.80;;;14.93;;
35990;SDS011;22064;42.672;23.282;2023-01-15T01:30:15;36.17;;;14.85;;
35990;SDS011;22064;42.672;23.282;2023-01-15T01:33:00;32.40;;;14.88;;
35990;SDS011;22064;42.672;23.282;2023-01-15T01:35:50;36.38;;;15.82;;
35990;SDS011;22064;42.672;23.282;2023-01-15T01:38:34;38.50;;;15.77;;
35990;SDS011;22064;42.672;23.282;2023-01-15T01:41:19;35.88;;;15.23;;
35990;SDS011;22064;42.672;23.282;2023-01-15T01:44:04;35.65;;;15.30;;
35990;SDS011;22064;42.672;23.282;2023-01-15T01:47:22;40.05;;;16.13;;
35990;SDS011;22064;42.672;23.282;2023-01-15T01:50:11;39.10;;;16.10;;
35990;SDS011;22064;42.672;23.282;2023-01-15T01:53:04;36.08;;;15.88;;
35990;SDS011;22064;42.672;23.282;2023-01-15T01:55:51;37.05;;;15.40;;
35990;SDS011;22064;42.672;23.282;2023-01-15T01:58:36;35.60;;;16.38;;
35990;SDS011;22064;42.672;23.282;2023-01-15T02:01:21;37.08;;;16.45;;
35990;SDS011;22064;42.672;23.282;2023-01-15T02:04:09;34.92;;;15.38;;
35990;SDS011;22064;42.672;23.282;2023-01-15T02:06:54;35.63;;;15.80;;
35990;SDS011;22064;42.672;23.282;2023-01-15T02:09:40;40.85;;;17.17;;
35990;SDS011;22064;42.672;23.282;2023-01-15T02:12:30;39.38;;;16.63;;
35990;SDS011;22064;42.672;23.282;2023-01-15T02:15:24;36.42;;;16.95;;
35990;SDS011;22064;42.672;23.282;2023-01-15T02:18:21;38.63;;;16.65;;
35990;SDS011;22064;42.672;23.282;2023-01-15T02:24:47;42.15;;;18.25;;
35990;SDS011;22064;42.672;23.282;2023-01-15T02:30:00;40.90;;;17.30;;
35990;SDS011;22064;42.672;23.282;2023-01-15T02:33:03;41.92;;;18.63;;
35990;SDS011;22064;42.672;23.282;2023-01-15T02:35:55;46.70;;;18.40;;
35990;SDS011;22064;42.672;23.282;2023-01-15T02:38:46;40.88;;;18.55;;
35990;SDS011;22064;42.672;23.282;2023-01-15T02:41:57;41.08;;;18.77;;
35990;SDS011;22064;42.672;23.282;2023-01-15T02:44:48;44.88;;;18.83;;
35990;SDS011;22064;42.672;23.282;2023-01-15T02:47:37;38.73;;;15.47;;
35990;SDS011;22064;42.672;23.282;2023-01-15T02:50:27;46.22;;;19.58;;
35990;SDS011;22064;42.672;23.282;2023-01-15T02:53:21;47.58;;;19.90;;
35990;SDS011;22064;42.672;23.282;2023-01-15T02:56:13;49.33;;;20.10;;
35990;SDS011;22064;42.672;23.282;2023-01-15T02:59:08;48.97;;;20.30;;
35990;SDS011;22064;42.672;23.282;2023-01-15T03:02:01;48.00;;;20.50;;
35990;SDS011;22064;42.672;23.282;2023-01-15T03:04:55;47.63;;;19.73;;
35990;SDS011;22064;42.672;23.282;2023-01-15T03:07:45;47.47;;;18.23;;
35990;SDS011;22064;42.672;23.282;2023-01-15T03:10:51;43.00;;;18.00;;
35990;SDS011;22064;42.672;23.282;2023-01-15T03:22:22;38.55;;;17.00;;
35990;SDS011;22064;42.672;23.282;2023-01-15T03:25:09;44.15;;;17.77;;
35990;SDS011;22064;42.672;23.282;2023-01-15T03:28:04;40.53;;;17.25;;
35990;SDS011;22064;42.672;23.282;2023-01-15T03:30:51;36.70;;;16.35;;
35990;SDS011;22064;42.672;23.282;2023-01-15T03:33:36;39.92;;;16.63;;
35990;SDS011;22064;42.672;23.282;2023-01-15T03:36:24;36.20;;;15.77;;
35990;SDS011;22064;42.672;23.282;2023-01-15T03:39:08;38.13;;;15.73;;
35990;SDS011;22064;42.672;23.282;2023-01-15T03:42:26;24.85;;;11.85;;
35990;SDS011;22064;42.672;23.282;2023-01-15T03:45:28;26.00;;;10.80;;
35990;SDS011;22064;42.672;23.282;2023-01-15T03:54:32;30.08;;;13.32;;
35990;SDS011;22064;42.672;23.282;2023-01-15T03:57:35;29.55;;;11.88;;
35990;SDS011;22064;42.672;23.282;2023-01-15T04:03:17;29.25;;;11.88;;
35990;SDS011;22064;42.672;23.282;2023-01-15T04:06:03;26.88;;;11.50;;
35990;SDS011;22064;42.672;23.282;2023-01-15T04:08:48;27.58;;;11.85;;
35990;SDS011;22064;42.672;23.282;2023-01-15T04:11:34;28.17;;;11.70;;
35990;SDS011;22064;42.672;23.282;2023-01-15T04:14:22;28.88;;;11.85;;
35990;SDS011;22064;42.672;23.282;2023-01-15T04:17:10;31.48;;;12.90;;
35990;SDS011;22064;42.672;23.282;2023-01-15T04:19:54;29.50;;;13.18;;
35990;SDS011;22064;42.672;23.282;2023-01-15T04:22:38;29.42;;;13.00;;
35990;SDS011;22064;42.672;23.282;2023-01-15T04:25:21;35.95;;;14.30;;
35990;SDS011;22064;42.672;23.282;2023-01-15T04:28:06;33.10;;;14.45;;
35990;SDS011;22064;42.672;23.282;2023-01-15T04:30:51;34.58;;;13.45;;
35990;SDS011;22064;42.672;23.282;2023-01-15T04:33:35;31.05;;;13.73;;
35990;SDS011;22064;42.672;23.282;2023-01-15T04:36:20;32.80;;;13.23;;
35990;SDS011;22064;42.672;23.282;2023-01-15T04:39:04;32.97;;;13.75;;
35990;SDS011;22064;42.672;23.282;2023-01-15T04:41:48;32.55;;;13.10;;
35990;SDS011;22064;42.672;23.282;2023-01-15T04:44:51;31.35;;;13.10;;
35990;SDS011;22064;42.672;23.282;2023-01-15T04:47:35;30.58;;;13.27;;
35990;SDS011;22064;42.672;23.282;2023-01-15T04:50:19;35.13;;;14.05;;
35990;SDS011;22064;42.672;23.282;2023-01-15T04:53:04;32.10;;;13.73;;
35990;SDS011;22064;42.672;23.282;2023-01-15T04:55:48;31.40;;;14.55;;
35990;SDS011;22064;42.672;23.282;2023-01-15T04:58:33;32.65;;;13.82;;
35990;SDS011;22064;42.672;23.282;2023-01-15T05:01:17;35.47;;;15.93;;
35990;SDS011;22064;42.672;23.282;2023-01-15T05:04:02;33.70;;;14.43;;
35990;SDS011;22064;42.672;23.282;2023-01-15T05:06:47;33.42;;;14.85;;
35990;SDS011;22064;42.672;23.282;2023-01-15T05:09:31;37.78;;;16.05;;
35990;SDS011;22064;42.672;23.282;2023-01-15T05:12:16;38.65;;;16.17;;
35990;SDS011;22064;42.672;23.282;2023-01-15T05:14:59;36.55;;;15.65;;
35990;SDS011;22064;42.672;23.282;2023-01-15T05:17:43;36.05;;;16.08;;
35990;SDS011;22064;42.672;23.282;2023-01-15T05:20:27;41.05;;;16.40;;
35990;SDS011;22064;42.672;23.282;2023-01-15T05:23:11;35.83;;;15.57;;
35990;SDS011;22064;42.672;23.282;2023-01-15T05:25:55;38.05;;;16.30;;
35990;SDS011;22064;42.672;23.282;2023-01-15T05:28:39;38.42;;;16.02;;
35990;SDS011;22064;42.672;23.282;2023-01-15T05:31:24;35.88;;;15.32;;
35990;SDS011;22064;42.672;23.282;2023-01-15T05:34:09;35.78;;;15.82;;
35990;SDS011;22064;42.672;23.282;2023-01-15T05:36:53;39.05;;;16.75;;
35990;SDS011;22064;42.672;23.282;2023-01-15T05:39:37;39.88;;;16.90;;
35990;SDS011;22064;42.672;23.282;2023-01-15T05:42:21;37.90;;;16.55;;
35990;SDS011;22064;42.672;23.282;2023-01-15T05:45:05;40.78;;;17.25;;
35990;SDS011;22064;42.672;23.282;2023-01-15T05:47:51;39.75;;;17.20;;
35990;SDS011;22064;42.672;23.282;2023-01-15T05:50:36;39.60;;;16.98;;
35990;SDS011;22064;42.672;23.282;2023-01-15T05:53:20;39.10;;;17.73;;
35990;SDS011;22064;42.672;23.282;2023-01-15T05:56:04;40.78;;;17.85;;
35990;SDS011;22064;42.672;23.282;2023-01-15T05:58:48;44.50;;;19.25;;
35990;SDS011;22064;42.672;23.282;2023-01-15T06:01:33;75.70;;;35.45;;
35990;SDS011;22064;42.672;23.282;2023-01-15T06:04:17;45.28;;;21.20;;
35990;SDS011;22064;42.672;23.282;2023-01-15T06:07:04;41.90;;;17.95;;
35990;SDS011;22064;42.672;23.282;2023-01-15T06:09:48;40.67;;;17.25;;
35990;SDS011;22064;42.672;23.282;2023-01-15T06:12:32;40.85;;;16.52;;
35990;SDS011;22064;42.672;23.282;2023-01-15T06:15:16;40.20;;;16.25;;
35990;SDS011;22064;42.672;23.282;2023-01-15T06:18:00;38.95;;;17.23;;
35990;SDS011;22064;42.672;23.282;2023-01-15T06:20:44;43.03;;;18.00;;
35990;SDS011;22064;42.672;23.282;2023-01-15T06:23:28;39.88;;;17.65;;
35990;SDS011;22064;42.672;23.282;2023-01-15T06:26:14;39.08;;;16.40;;
35990;SDS011;22064;42.672;23.282;2023-01-15T06:29:01;40.40;;;17.02;;
35990;SDS011;22064;42.672;23.282;2023-01-15T06:31:45;39.42;;;16.88;;
35990;SDS011;22064;42.672;23.282;2023-01-15T06:34:30;42.92;;;17.70;;
35990;SDS011;22064;42.672;23.282;2023-01-15T06:37:14;40.45;;;16.98;;
35990;SDS011;22064;42.672;23.282;2023-01-15T06:39:58;38.90;;;17.10;;
35990;SDS011;22064;42.672;23.282;2023-01-15T06:42:42;41.45;;;16.95;;
35990;SDS011;22064;42.672;23.282;2023-01-15T06:45:45;40.80;;;17.05;;
35990;SDS011;22064;42.672;23.282;2023-01-15T06:48:48;41.22;;;17.17;;
35990;SDS011;22064;42.672;23.282;2023-01-15T06:51:33;37.38;;;15.82;;
35990;SDS011;22064;42.672;23.282;2023-01-15T06:54:17;41.50;;;16.27;;
35990;SDS011;22064;42.672;23.282;2023-01-15T06:57:01;40.55;;;16.10;;
35990;SDS011;22064;42.672;23.282;2023-01-15T06:59:46;41.15;;;16.70;;
35990;SDS011;22064;42.672;23.282;2023-01-15T07:02:30;35.20;;;15.60;;
35990;SDS011;22064;42.672;23.282;2023-01-15T07:05:14;35.20;;;15.80;;
35990;SDS011;22064;42.672;23.282;2023-01-15T07:07:58;37.33;;;15.82;;
35990;SDS011;22064;42.672;23.282;2023-01-15T07:10:43;33.75;;;15.02;;
35990;SDS011;22064;42.672;23.282;2023-01-15T07:13:27;35.72;;;15.70;;
35990;SDS011;22064;42.672;23.282;2023-01-15T07:16:11;34.55;;;15.10;;
35990;SDS011;22064;42.672;23.282;2023-01-15T07:19:10;28.55;;;13.38;;
35990;SDS011;22064;42.672;23.282;2023-01-15T07:21:54;33.50;;;15.20;;
35990;SDS011;22064;42.672;23.282;2023-01-15T07:24:38;39.65;;;18.42;;
35990;SDS011;22064;42.672;23.282;2023-01-15T07:27:22;39.85;;;18.27;;
35990;SDS011;22064;42.672;23.282;2023-01-15T07:30:07;38.22;;;17.63;;
35990;SDS011;22064;42.672;23.282;2023-01-15T07:32:51;40.60;;;18.05;;
35990;SDS011;22064;42.672;23.282;2023-01-15T07:35:36;38.63;;;17.77;;
35990;SDS011;22064;42.672;23.282;2023-01-15T07:38:20;41.35;;;17.85;;
35990;SDS011;22064;42.672;23.282;2023-01-15T07:41:04;42.67;;;17.90;;
35990;SDS011;22064;42.672;23.282;2023-01-15T07:44:08;39.90;;;18.25;;
35990;SDS011;22064;42.672;23.282;2023-01-15T07:50:22;47.70;;;20.45;;
35990;SDS011;22064;42.672;23.282;2023-01-15T07:53:07;43.83;;;19.65;;
35990;SDS011;22064;42.672;23.282;2023-01-15T07:55:51;43.22;;;20.05;;
35990;SDS011;22064;42.672;23.282;2023-01-15T07:58:35;43.22;;;19.05;;
35990;SDS011;22064;42.672;23.282;2023-01-15T08:01:20;42.70;;;18.73;;
35990;SDS011;22064;42.672;23.282;2023-01-15T08:04:04;34.60;;;15.15;;
35990;SDS011;22064;42.672;23.282;2023-01-15T08:06:49;32.63;;;12.80;;
35990;SDS011;22064;42.672;23.282;2023-01-15T08:09:33;27.80;;;12.57;;
35990;SDS011;22064;42.672;23.282;2023-01-15T08:12:18;22.92;;;9.32;;
35990;SDS011;22064;42.672;23.282;2023-01-15T08:15:21;26.38;;;10.93;;
35990;SDS011;22064;42.672;23.282;2023-01-15T08:18:05;26.05;;;11.50;;
35990;SDS011;22064;42.672;23.282;2023-01-15T08:20:50;30.20;;;12.35;;
35990;SDS011;22064;42.672;23.282;2023-01-15T08:23:37;30.65;;;13.40;;
35990;SDS011;22064;42.672;23.282;2023-01-15T08:26:21;31.90;;;13.88;;
35990;SDS011;22064;42.672;23.282;2023-01-15T08:29:05;31.70;;;14.02;;
35990;SDS011;22064;42.672;23.282;2023-01-15T08:31:49;28.52;;;11.82;;
35990;SDS011;22064;42.672;23.282;2023-01-15T08:34:32;27.48;;;12.82;;
35990;SDS011;22064;42.672;23.282;2023-01-15T08:37:17;26.10;;;11.40;;
35990;SDS011;22064;42.672;23.282;2023-01-15T08:40:01;25.13;;;10.88;;
35990;SDS011;22064;42.672;23.282;2023-01-15T08:42:46;22.20;;;10.60;;
35990;SDS011;22064;42.672;23.282;2023-01-15T08:45:30;23.77;;;10.70;;
35990;SDS011;22064;42.672;23.282;2023-01-15T08:48:14;28.77;;;12.65;;
35990;SDS011;22064;42.672;23.282;2023-01-15T08:50:58;25.92;;;11.88;;
35990;SDS011;22064;42.672;23.282;2023-01-15T08:53:49;27.52;;;12.73;;
35990;SDS011;22064;42.672;23.282;2023-01-15T08:56:33;27.83;;;12.07;;
35990;SDS011;22064;42.672;23.282;2023-01-15T08:59:17;27.70;;;12.52;;
35990;SDS011;22064;42.672;23.282;2023-01-15T09:02:01;26.20;;;11.68;;
35990;SDS011;22064;42.672;23.282;2023-01-15T09:04:46;26.38;;;12.52;;
35990;SDS011;22064;42.672;23.282;2023-01-15T09:07:30;29.20;;;13.30;;
35990;SDS011;22064;42.672;23.282;2023-01-15T09:10:14;29.50;;;13.43;;
35990;SDS011;22064;42.672;23.282;2023-01-15T09:12:59;28.85;;;14.48;;
35990;SDS011;22064;42.672;23.282;2023-01-15T09:15:44;41.75;;;21.02;;
35990;SDS011;22064;42.672;23.282;2023-01-15T09:18:28;29.35;;;13.05;;
35990;SDS011;22064;42.672;23.282;2023-01-15T09:21:12;28.10;;;12.60;;
35990;SDS011;22064;42.672;23.282;2023-01-15T09:23:57;29.58;;;12.75;;
35990;SDS011;22064;42.672;23.282;2023-01-15T09:26:41;26.33;;;12.38;;
35990;SDS011;22064;42.672;23.282;2023-01-15T09:29:25;28.90;;;13.15;;
35990;SDS011;22064;42.672;23.282;2023-01-15T09:32:09;26.92;;;13.05;;
35990;SDS011;22064;42.672;23.282;2023-01-15T09:34:53;27.13;;;12.45;;
35990;SDS011;22064;42.672;23.282;2023-01-15T09:37:37;28.98;;;13.05;;
35990;SDS011;22064;42.672;23.282;2023-01-15T09:40:35;27.10;;;11.15;;
35990;SDS011;22064;42.672;23.282;2023-01-15T09:43:45;25.85;;;11.95;;
35990;SDS011;22064;42.672;23.282;2023-01-15T09:46:50;25.00;;;11.25;;
35990;SDS011;22064;42.672;23.282;2023-01-15T09:53:04;26.73;;;12.15;;
35990;SDS011;22064;42.672;23.282;2023-01-15T09:56:02;26.98;;;12.45;;
35990;SDS011;22064;42.672;23.282;2023-01-15T09:58:47;26.65;;;12.85;;
35990;SDS011;22064;42.672;23.282;2023-01-15T10:01:32;27.63;;;12.65;;
35990;SDS011;22064;42.672;23.282;2023-01-15T10:04:34;28.10;;;13.07;;
35990;SDS011;22064;42.672;23.282;2023-01-15T10:10:19;28.95;;;12.57;;
35990;SDS011;22064;42.672;23.282;2023-01-15T10:13:11;27.50;;;12.15;;
35990;SDS011;22064;42.672;23.282;2023-01-15T10:16:02;27.77;;;13.32;;
35990;SDS011;22064;42.672;23.282;2023-01-15T10:18:47;30.02;;;13.63;;
35990;SDS011;22064;42.672;23.282;2023-01-15T10:24:55;31.50;;;14.80;;
35990;SDS011;22064;42.672;23.282;2023-01-15T10:27:44;29.42;;;14.63;;
35990;SDS011;22064;42.672;23.282;2023-01-15T10:30:38;33.40;;;13.80;;
35990;SDS011;22064;42.672;23.282;2023-01-15T10:33:45;31.27;;;13.60;;
35990;SDS011;22064;42.672;23.282;2023-01-15T10:36:41;30.67;;;13.95;;
35990;SDS011;22064;42.672;23.282;2023-01-15T10:45:28;32.00;;;15.88;;
35990;SDS011;22064;42.672;23.282;2023-01-15T10:51:41;30.27;;;15.18;;
35990;SDS011;22064;42.672;23.282;2023-01-15T10:57:17;30.35;;;15.65;;
35990;SDS011;22064;42.672;23.282;2023-01-15T11:00:03;30.77;;;15.30;;
35990;SDS011;22064;42.672;23.282;2023-01-15T11:02:58;33.67;;;15.57;;
35990;SDS011;22064;42.672;23.282;2023-01-15T11:05:47;30.70;;;14.30;;
35990;SDS011;22064;42.672;23.282;2023-01-15T11:08:32;32.60;;;14.98;;
35990;SDS011;22064;42.672;23.282;2023-01-15T11:11:22;36.42;;;15.95;;
35990;SDS011;22064;42.672;23.282;2023-01-15T11:14:41;31.33;;;15.18;;
35990;SDS011;22064;42.672;23.282;2023-01-15T11:17:45;52.03;;;25.33;;
35990;SDS011;22064;42.672;23.282;2023-01-15T11:20:48;30.17;;;14.43;;
35990;SDS011;22064;42.672;23.282;2023-01-15T11:23:34;29.02;;;13.32;;
35990;SDS011;22064;42.672;23.282;2023-01-15T11:26:23;30.45;;;13.52;;
35990;SDS011;22064;42.672;23.282;2023-01-15T11:29:11;31.02;;;13.90;;
35990;SDS011;22064;42.672;23.282;2023-01-15T11:31:58;31.23;;;14.65;;
35990;SDS011;22064;42.672;23.282;2023-01-15T11:34:50;29.42;;;13.10;;
35990;SDS011;22064;42.672;23.282;2023-01-15T11:37:36;27.10;;;11.60;;
35990;SDS011;22064;42.672;23.282;2023-01-15T11:40:21;27.83;;;12.48;;
35990;SDS011;22064;42.672;23.282;2023-01-15T11:43:24;26.10;;;12.10;;
35990;SDS011;22064;42.672;23.282;2023-01-15T11:46:30;31.85;;;15.88;;
35990;SDS011;22064;42.672;23.282;2023-01-15T11:49:33;33.90;;;15.60;;
35990;SDS011;22064;42.672;23.282;2023-01-15T11:52:49;36.38;;;15.95;;
35990;SDS011;22064;42.672;23.282;2023-01-15T11:55:37;29.27;;;14.50;;
35990;SDS011;22064;42.672;23.282;2023-01-15T11:58:21;29.90;;;13.40;;
35990;SDS011;22064;42.672;23.282;2023-01-15T12:01:08;27.10;;;12.95;;
35990;SDS011;22064;42.672;23.282;2023-01-15T12:03:59;29.42;;;13.13;;
35990;SDS011;22064;42.672;23.282;2023-01-15T12:06:44;27.02;;;12.32;;
35990;SDS011;22064;42.672;23.282;2023-01-15T12:09:32;25.08;;;12.05;;
35990;SDS011;22064;42.672;23.282;2023-01-15T12:15:28;22.90;;;11.82;;
35990;SDS011;22064;42.672;23.282;2023-01-15T12:21:43;27.65;;;12.73;;
35990;SDS011;22064;42.672;23.282;2023-01-15T12:36:07;22.92;;;10.70;;
35990;SDS011;22064;42.672;23.282;2023-01-15T12:41:59;21.75;;;10.13;;
35990;SDS011;22064;42.672;23.282;2023-01-15T12:45:08;20.90;;;9.85;;
35990;SDS011;22064;42.672;23.282;2023-01-15T12:50:55;22.85;;;9.82;;
35990;SDS011;22064;42.672;23.282;2023-01-15T12:59:42;23.23;;;10.00;;
35990;SDS011;22064;42.672;23.282;2023-01-15T13:03:16;23.73;;;10.57;;
35990;SDS011;22064;42.672;23.282;2023-01-15T13:05:57;24.10;;;11.55;;
35990;SDS011;22064;42.672;23.282;2023-01-15T13:11:45;25.33;;;11.13;;
35990;SDS011;22064;42.672;23.282;2023-01-15T13:14:29;23.58;;;10.02;;
35990;SDS011;22064;42.672;23.282;2023-01-15T13:17:16;20.98;;;10.10;;
35990;SDS011;22064;42.672;23.282;2023-01-15T13:20:19;22.13;;;10.65;;
35990;SDS011;22064;42.672;23.282;2023-01-15T13:32:44;21.25;;;9.48;;
35990;SDS011;22064;42.672;23.282;2023-01-15T13:35:34;22.10;;;9.48;;
35990;SDS011;22064;42.672;23.282;2023-01-15T13:38:25;20.95;;;10.00;;
35990;SDS011;22064;42.672;23.282;2023-01-15T13:41:18;20.42;;;8.82;;
35990;SDS011;22064;42.672;23.282;2023-01-15T13:44:28;19.42;;;9.23;;
35990;SDS011;22064;42.672;23.282;2023-01-15T13:47:21;20.45;;;8.63;;
35990;SDS011;22064;42.672;23.282;2023-01-15T13:50:15;19.25;;;9.25;;
35990;SDS011;22064;42.672;23.282;2023-01-15T13:53:04;20.10;;;9.65;;
35990;SDS011;22064;42.672;23.282;2023-01-15T13:55:59;21.98;;;10.18;;
35990;SDS011;22064;42.672;23.282;2023-01-15T13:58:52;20.60;;;9.52;;
35990;SDS011;22064;42.672;23.282;2023-01-15T14:01:40;20.80;;;10.27;;
35990;SDS011;22064;42.672;23.282;2023-01-15T14:04:36;29.30;;;12.82;;
35990;SDS011;22064;42.672;23.282;2023-01-15T14:07:34;21.27;;;9.98;;
35990;SDS011;22064;42.672;23.282;2023-01-15T14:28:41;31.80;;;12.52;;
35990;SDS011;22064;42.672;23.282;2023-01-15T14:31:47;23.83;;;12.20;;
35990;SDS011;22064;42.672;23.282;2023-01-15T14:34:34;23.48;;;11.65;;
35990;SDS011;22064;42.672;23.282;2023-01-15T14:40:15;26.60;;;11.43;;
35990;SDS011;22064;42.672;23.282;2023-01-15T14:43:09;23.92;;;11.15;;
35990;SDS011;22064;42.672;23.282;2023-01-15T14:46:09;23.15;;;10.35;;
35990;SDS011;22064;42.672;23.282;2023-01-15T14:48:57;29.23;;;11.85;;
35990;SDS011;22064;42.672;23.282;2023-01-15T14:51:46;25.40;;;12.27;;
35990;SDS011;22064;42.672;23.282;2023-01-15T14:54:33;27.10;;;12.60;;
35990;SDS011;22064;42.672;23.282;2023-01-15T14:57:20;26.92;;;12.73;;
35990;SDS011;22064;42.672;23.282;2023-01-15T15:00:06;27.05;;;12.20;;
35990;SDS011;22064;42.672;23.282;2023-01-15T15:03:00;42.40;;;19.70;;
35990;SDS011;22064;42.672;23.282;2023-01-15T15:05:45;27.38;;;12.82;;
35990;SDS011;22064;42.672;23.282;2023-01-15T15:08:30;29.10;;;12.32;;
35990;SDS011;22064;42.672;23.282;2023-01-15T15:11:20;30.08;;;13.18;;
35990;SDS011;22064;42.672;23.282;2023-01-15T15:14:27;29.65;;;12.68;;
35990;SDS011;22064;42.672;23.282;2023-01-15T15:17:19;27.42;;;12.65;;
35990;SDS011;22064;42.672;23.282;2023-01-15T15:23:44;28.65;;;13.55;;
35990;SDS011;22064;42.672;23.282;2023-01-15T15:26:50;31.80;;;14.65;;
35990;SDS011;22064;42.672;23.282;2023-01-15T15:29:34;30.60;;;13.80;;
35990;SDS011;22064;42.672;23.282;2023-01-15T15:32:19;29.20;;;13.82;;
35990;SDS011;22064;42.672;23.282;2023-01-15T15:35:16;31.65;;;13.95;;
35990;SDS011;22064;42.672;23.282;2023-01-15T15:38:13;28.98;;;13.38;;
35990;SDS011;22064;42.672;23.282;2023-01-15T15:41:04;36.08;;;15.32;;
35990;SDS011;22064;42.672;23.282;2023-01-15T15:43:54;30.20;;;13.70;;
35990;SDS011;22064;42.672;23.282;2023-01-15T15:47:01;34.58;;;13.88;;
35990;SDS011;22064;42.672;23.282;2023-01-15T15:50:23;32.00;;;13.48;;
35990;SDS011;22064;42.672;23.282;2023-01-15T15:53:15;48.08;;;23.92;;
35990;SDS011;22064;42.672;23.282;2023-01-15T15:56:00;38.15;;;13.93;;
35990;SDS011;22064;42.672;23.282;2023-01-15T15:58:44;39.55;;;16.05;;
35990;SDS011;22064;42.672;23.282;2023-01-15T16:01:29;35.53;;;14.95;;
35990;SDS011;22064;42.672;23.282;2023-01-15T16:04:19;38.95;;;15.10;;
35990;SDS011;22064;42.672;23.282;2023-01-15T16:07:13;37.88;;;15.20;;
35990;SDS011;22064;42.672;23.282;2023-01-15T16:10:12;40.22;;;16.63;;
35990;SDS011;22064;42.672;23.282;2023-01-15T16:13:00;44.45;;;16.15;;
35990;SDS011;22064;42.672;23.282;2023-01-15T16:15:48;32.37;;;13.30;;
35990;SDS011;22064;42.672;23.282;2023-01-15T16:18:37;46.40;;;19.48;;
35990;SDS011;22064;42.672;23.282;2023-01-15T16:21:35;43.88;;;20.38;;
35990;SDS011;22064;42.672;23.282;2023-01-15T16:24:25;47.20;;;21.02;;
35990;SDS011;22064;42.672;23.282;2023-01-15T16:27:14;46.42;;;20.73;;
35990;SDS011;22064;42.672;23.282;2023-01-15T16:30:00;45.28;;;22.38;;
35990;SDS011;22064;42.672;23.282;2023-01-15T16:32:45;55.80;;;26.08;;
35990;SDS011;22064;42.672;23.282;2023-01-15T16:35:35;57.00;;;26.88;;
35990;SDS011;22064;42.672;23.282;2023-01-15T16:38:20;70.88;;;34.20;;
35990;SDS011;22064;42.672;23.282;2023-01-15T16:41:04;58.50;;;29.48;;
35990;SDS011;22064;42.672;23.282;2023-01-15T16:43:51;56.15;;;26.05;;
35990;SDS011;22064;42.672;23.282;2023-01-15T16:46:48;48.30;;;24.42;;
35990;SDS011;22064;42.672;23.282;2023-01-15T16:49:37;50.78;;;24.75;;
35990;SDS011;22064;42.672;23.282;2023-01-15T16:52:42;51.50;;;23.90;;
35990;SDS011;22064;42.672;23.282;2023-01-15T16:58:19;48.60;;;24.48;;
35990;SDS011;22064;42.672;23.282;2023-01-15T17:01:47;50.80;;;23.40;;
35990;SDS011;22064;42.672;23.282;2023-01-15T17:10:02;48.13;;;23.85;;
35990;SDS011;22064;42.672;23.282;2023-01-15T17:12:47;53.35;;;25.00;;
35990;SDS011;22064;42.672;23.282;2023-01-15T17:15:34;55.13;;;26.15;;
35990;SDS011;22064;42.672;23.282;2023-01-15T17:18:24;54.50;;;25.33;;
35990;SDS011;22064;42.672;23.282;2023-01-15T17:21:13;62.13;;;29.30;;
35990;SDS011;22064;42.672;23.282;2023-01-15T17:24:05;63.20;;;29.10;;
35990;SDS011;22064;42.672;23.282;2023-01-15T17:26:50;60.30;;;30.48;;
35990;SDS011;22064;42.672;23.282;2023-01-15T17:29:34;59.45;;;28.55;;
35990;SDS011;22064;42.672;23.282;2023-01-15T17:32:24;68.38;;;32.50;;
35990;SDS011;22064;42.672;23.282;2023-01-15T17:35:19;70.68;;;33.92;;
35990;SDS011;22064;42.672;23.282;2023-01-15T17:38:06;79.55;;;39.78;;
35990;SDS011;22064;42.672;23.282;2023-01-15T17:40:56;82.13;;;42.58;;
35990;SDS011;22064;42.672;23.282;2023-01-15T17:43:41;81.20;;;40.88;;
35990;SDS011;22064;42.672;23.282;2023-01-15T17:46:26;77.82;;;39.35;;
35990;SDS011;22064;42.672;23.282;2023-01-15T17:49:11;78.65;;;39.50;;
35990;SDS011;22064;42.672;23.282;2023-01-15T17:51:55;72.20;;;36.40;;
35990;SDS011;22064;42.672;23.282;2023-01-15T17:54:40;71.90;;;34.42;;
35990;SDS011;22064;42.672;23.282;2023-01-15T17:57:43;73.50;;;35.17;;
35990;SDS011;22064;42.672;23.282;2023-01-15T18:01:15;71.53;;;35.65;;
35990;SDS011;22064;42.672;23.282;2023-01-15T18:07:45;72.63;;;35.85;;
35990;SDS011;22064;42.672;23.282;2023-01-15T18:10:30;74.97;;;34.72;;
35990;SDS011;22064;42.672;23.282;2023-01-15T18:13:16;68.50;;;33.65;;
35990;SDS011;22064;42.672;23.282;2023-01-15T18:15:59;63.28;;;30.92;;
35990;SDS011;22064;42.672;23.282;2023-01-15T18:18:44;65.85;;;30.83;;
35990;SDS011;22064;42.672;23.282;2023-01-15T18:21:28;63.97;;;30.75;;
35990;SDS011;22064;42.672;23.282;2023-01-15T18:24:13;62.35;;;28.48;;
35990;SDS011;22064;42.672;23.282;2023-01-15T18:26:58;70.15;;;31.75;;